Terminal Aerodrome Forecast
Issued by NWS Sterling, VA

Current Version | Previous Version | Text Only | Print | Product List | Glossary Off
Versions: 1 2 3 4 5 6 7 8 9 10 11 12 13 14 15 16 17 18 19 20 21 22 23 24 25 26 27 28

188
FTUS41 KLWX 031858 AAB
TAFIAD
TAF AMD
KIAD 031858Z 0319/0424 16010KT 5SM -RA BR SCT030 OVC050
     FM032300 VRB05KT 2SM BR BKN008 OVC020
     FM040600 34008KT 4SM BR BKN050
     FM041500 33012KT P6SM BKN100=

USA.gov is the U.S. government's official web portal to all federal, state and local government web resources and services.